Time;durP1;ratioP1;P1;durP2;ratioP2;P2;SDS_P1;SDS_P2;PMS_P1;PMS_P2;Temp;Humidity;BMP_temperature;BMP_pressure;BME280_temperature;BME280_humidity;BME280_pressure;Samples;Min_cycle;Max_cycle;Signal;HPM_P1;HPM_P2
2021/07/25 00:00:48;;;;;;;15.97;11.70;;;;;;;;;;4993567;28;20262;-76
2021/07/25 00:03:16;;;;;;;19.23;12.17;;;;;;;;;;4993503;28;20262;-76
2021/07/25 00:05:43;;;;;;;16.27;11.60;;;;;;;;;;4992873;28;20678;-77
2021/07/25 00:08:13;;;;;;;17.73;11.50;;;;;;;;;;4993097;28;20261;-76
2021/07/25 00:10:41;;;;;;;21.00;12.00;;;;;;;;;;4992798;28;20301;-77
2021/07/25 00:13:10;;;;;;;16.63;11.50;;;;;;;;;;4993325;28;20545;-76
2021/07/25 00:15:40;;;;;;;16.93;11.13;;;;;;;;;;4993111;28;20260;-77
2021/07/25 00:18:10;;;;;;;15.33;10.80;;;;;;;;;;4993031;28;20203;-77
2021/07/25 00:20:39;;;;;;;17.07;11.50;;;;;;;;;;4992607;28;20293;-77
2021/07/25 00:23:17;;;;;;;18.60;11.37;;;;;;;;;;4992884;28;20288;-77
2021/07/25 00:25:49;;;;;;;20.20;11.93;;;;;;;;;;4992610;28;20206;-77
2021/07/25 00:28:19;;;;;;;18.33;11.90;;;;;;;;;;4992758;28;20236;-77
2021/07/25 00:30:49;;;;;;;20.53;12.87;;;;;;;;;;4992828;28;20541;-77
2021/07/25 00:33:18;;;;;;;17.87;13.10;;;;;;;;;;4992698;28;20292;-77
2021/07/25 00:35:47;;;;;;;19.83;12.83;;;;;;;;;;4993046;28;20297;-77
2021/07/25 00:38:16;;;;;;;20.70;13.20;;;;;;;;;;4992910;28;20288;-77
2021/07/25 00:40:47;;;;;;;20.97;13.57;;;;;;;;;;4992871;28;20205;-77
2021/07/25 00:43:28;;;;;;;21.80;13.47;;;;;;;;;;4993037;28;20313;-77
2021/07/25 00:45:58;;;;;;;21.70;13.20;;;;;;;;;;4993007;28;20552;-77
2021/07/25 00:48:28;;;;;;;18.50;12.90;;;;;;;;;;4992256;28;20205;-76
2021/07/25 00:50:59;;;;;;;20.20;13.17;;;;;;;;;;4992941;28;20293;-77
2021/07/25 00:53:38;;;;;;;20.60;13.33;;;;;;;;;;4992571;28;20292;-77
2021/07/25 00:56:15;;;;;;;23.13;13.50;;;;;;;;;;4992752;28;20284;-77
2021/07/25 00:58:51;;;;;;;17.10;12.37;;;;;;;;;;4992931;28;20292;-77
2021/07/25 01:01:26;;;;;;;17.10;13.10;;;;;;;;;;4992716;28;20201;-77
2021/07/25 01:04:02;;;;;;;19.87;13.60;;;;;;;;;;4992369;28;20681;-77
2021/07/25 01:06:38;;;;;;;18.73;14.00;;;;;;;;;;4992980;28;20205;-77
2021/07/25 01:09:13;;;;;;;19.10;12.53;;;;;;;;;;4992674;28;20263;-77
2021/07/25 01:11:42;;;;;;;18.77;12.17;;;;;;;;;;4992599;28;20295;-77
2021/07/25 01:14:11;;;;;;;18.70;12.70;;;;;;;;;;4992859;28;20539;-77
2021/07/25 01:16:42;;;;;;;17.37;12.20;;;;;;;;;;4992259;28;20210;-77
2021/07/25 01:19:11;;;;;;;18.30;12.07;;;;;;;;;;4992518;28;20300;-77
2021/07/25 01:21:42;;;;;;;15.87;11.53;;;;;;;;;;4992404;28;20741;-77
2021/07/25 01:24:10;;;;;;;15.70;11.67;;;;;;;;;;4991929;28;20757;-77
2021/07/25 01:26:43;;;;;;;16.83;11.07;;;;;;;;;;4992075;28;20752;-77
2021/07/25 01:29:14;;;;;;;16.83;11.77;;;;;;;;;;4999702;28;20296;-77
2021/07/25 01:31:45;;;;;;;15.60;11.37;;;;;;;;;;5011941;28;20221;-77
2021/07/25 01:34:14;;;;;;;14.80;10.37;;;;;;;;;;5012129;28;20297;-77
2021/07/25 01:36:44;;;;;;;18.03;10.90;;;;;;;;;;5010677;28;20615;-77
2021/07/25 01:39:14;;;;;;;14.83;10.47;;;;;;;;;;5000160;28;20360;-77
2021/07/25 01:41:44;;;;;;;16.13;11.77;;;;;;;;;;5011992;28;20292;-77
2021/07/25 01:44:13;;;;;;;17.63;12.03;;;;;;;;;;5012003;28;20292;-77
2021/07/25 01:46:41;;;;;;;15.83;11.53;;;;;;;;;;5012923;28;20201;-77
2021/07/25 01:49:09;;;;;;;19.60;11.50;;;;;;;;;;5015258;28;20296;-77
2021/07/25 01:51:37;;;;;;;20.63;12.13;;;;;;;;;;5015194;28;20316;-77
2021/07/25 01:54:06;;;;;;;20.87;11.70;;;;;;;;;;5015290;28;20708;-76
2021/07/25 01:56:33;;;;;;;17.17;11.60;;;;;;;;;;5014962;28;20566;-77
2021/07/25 01:59:00;;;;;;;19.50;12.60;;;16.00;99.90;;;;;;5014912;28;20204;-77
2021/07/25 02:01:27;;;;;;;22.30;12.53;;;16.20;99.90;;;;;;5014802;28;20201;-77
2021/07/25 02:03:54;;;;;;;16.03;11.73;;;16.20;99.90;;;;;;5014950;28;20197;-77
2021/07/25 02:06:22;;;;;;;19.13;11.80;;;16.10;99.90;;;;;;5014790;28;20288;-77
2021/07/25 02:08:49;;;;;;;15.60;12.23;;;16.20;99.90;;;;;;5013196;28;20304;-77
2021/07/25 02:11:19;;;;;;;16.60;11.47;;;16.20;99.90;;;;;;5014695;28;20815;-77
2021/07/25 02:13:46;;;;;;;17.13;11.33;;;16.20;99.90;;;;;;5014753;28;20213;-77
2021/07/25 02:16:13;;;;;;;18.63;11.30;;;16.20;99.90;;;;;;5014365;28;20263;-77
2021/07/25 02:18:40;;;;;;;16.67;10.70;;;;;;;;;;5014629;28;20373;-77
2021/07/25 02:21:08;;;;;;;16.63;10.53;;;;;;;;;;5014316;28;20201;-77
2021/07/25 02:23:36;;;;;;;12.93;9.37;;;;;;;;;;5014333;28;20232;-77
2021/07/25 02:26:05;;;;;;;13.23;9.03;;;;;;;;;;5014710;28;20284;-77
2021/07/25 02:28:34;;;;;;;15.60;9.60;;;;;;;;;;5014689;28;20304;-77
2021/07/25 02:31:03;;;;;;;16.10;9.53;;;;;;;;;;5013981;28;20320;-77
2021/07/25 02:33:32;;;;;;;11.67;9.10;;;;;;;;;;5014207;28;20212;-77
2021/07/25 02:36:01;;;;;;;14.97;9.33;;;;;;;;;;5014265;28;20280;-76
2021/07/25 02:38:30;;;;;;;11.27;8.47;;;;;;;;;;5014558;28;20292;-77
2021/07/25 02:41:00;;;;;;;14.33;8.50;;;;;;;;;;5014172;28;20307;-77
2021/07/25 02:43:31;;;;;;;12.33;8.67;;;;;;;;;;5013853;28;20685;-76
2021/07/25 02:46:02;;;;;;;14.47;8.23;;;;;;;;;;5014134;28;20753;-76
2021/07/25 02:48:32;;;;;;;11.23;8.03;;;;;;;;;;5014161;28;20300;-77
2021/07/25 02:51:04;;;;;;;13.03;8.50;;;;;;;;;;5014159;28;20324;-76
2021/07/25 02:53:35;;;;;;;14.07;8.53;;;;;;;;;;5014275;28;20224;-77
2021/07/25 02:56:05;;;;;;;11.53;8.63;;;;;;;;;;5013991;28;20630;-77
2021/07/25 02:58:35;;;;;;;10.57;8.33;;;;;;;;;;5012626;28;20212;-77
2021/07/25 03:01:14;;;;;;;12.93;9.27;;;;;;;;;;5013615;28;20288;-77
2021/07/25 03:03:44;;;;;;;12.90;8.87;;;;;;;;;;5013864;28;20287;-77
2021/07/25 03:06:15;;;;;;;11.73;8.60;;;;;;;;;;5013700;28;20291;-77
2021/07/25 03:08:45;;;;;;;11.70;8.77;;;;;;;;;;5013284;28;20788;-77
2021/07/25 03:11:16;;;;;;;9.93;8.20;;;;;;;;;;5013511;28;20315;-77
2021/07/25 03:13:46;;;;;;;11.93;8.43;;;;;;;;;;5013510;28;20291;-76
2021/07/25 03:16:18;;;;;;;15.60;8.93;;;;;;;;;;5013558;28;20219;-77
2021/07/25 03:18:49;;;;;;;13.27;9.00;;;;;;;;;;5013633;28;20205;-77
2021/07/25 03:21:19;;;;;;;12.83;9.27;;;;;;;;;;5013258;28;21452;-77
2021/07/25 03:23:49;;;;;;;12.13;8.70;;;;;;;;;;5013566;28;20240;-76
2021/07/25 03:26:19;;;;;;;13.73;8.83;;;;;;;;;;5013252;28;20288;-77
2021/07/25 03:28:49;;;;;;;14.10;8.93;;;;;;;;;;5008721;28;20293;-76
2021/07/25 03:31:20;;;;;;;14.93;9.00;;;;;;;;;;4993621;28;20281;-76
2021/07/25 03:33:50;;;;;;;13.73;8.73;;;;;;;;;;4993530;28;20309;-77
2021/07/25 03:36:21;;;;;;;12.83;9.30;;;;;;;;;;4993613;28;20727;-76
2021/07/25 03:38:51;;;;;;;16.10;10.20;;;;;;;;;;4993480;28;20202;-76
2021/07/25 03:41:19;;;;;;;15.03;9.37;;;;;;;;;;4993195;28;20724;-76
2021/07/25 03:43:47;;;;;;;13.07;9.13;;;;;;;;;;4993595;28;20230;-76
2021/07/25 03:46:18;;;;;;;15.83;9.70;;;;;;;;;;4993370;28;20220;-77
2021/07/25 03:48:47;;;;;;;16.27;9.57;;;;;;;;;;4993455;28;20202;-77
2021/07/25 03:51:16;;;;;;;13.67;9.13;;;;;;;;;;4993307;28;20202;-77
2021/07/25 03:53:44;;;;;;;18.00;9.83;;;;;;;;;;4993491;28;20316;-77
2021/07/25 03:56:12;;;;;;;13.43;8.90;;;;;;;;;;4993032;28;20212;-77
2021/07/25 03:58:40;;;;;;;13.97;8.90;;;;;;;;;;4993278;28;20684;-76
2021/07/25 04:01:08;;;;;;;13.43;9.67;;;;;;;;;;4993128;28;20292;-76
2021/07/25 04:03:37;;;;;;;13.57;9.20;;;;;;;;;;4993519;28;20292;-77
2021/07/25 04:06:06;;;;;;;15.63;9.20;;;;;;;;;;4993343;28;20373;-77
2021/07/25 04:08:34;;;;;;;12.77;9.30;;;;;;;;;;4993061;28;20317;-77
2021/07/25 04:11:03;;;;;;;13.97;9.70;;;;;;;;;;4992658;28;20246;-76
2021/07/25 04:13:31;;;;;;;15.37;10.27;;;;;;;;;;4992575;28;20321;-77
2021/07/25 04:15:58;;;;;;;14.23;9.27;;;16.00;99.90;;;;;;4993327;28;20292;-77
2021/07/25 04:18:25;;;;;;;16.03;10.00;;;16.10;99.90;;;;;;4993118;28;20325;-77
2021/07/25 04:20:52;;;;;;;22.03;10.27;;;16.20;99.90;;;;;;4993061;28;20288;-77
2021/07/25 04:23:20;;;;;;;11.87;9.57;;;16.10;99.90;;;;;;4992829;28;20234;-77
2021/07/25 04:25:48;;;;;;;14.33;9.33;;;;;;;;;;4992653;28;20285;-77
2021/07/25 04:28:15;;;;;;;12.60;9.80;;;16.00;99.90;;;;;;4993078;28;20233;-77
2021/07/25 04:30:43;;;;;;;14.90;10.50;;;16.20;99.90;;;;;;4992708;28;20293;-76
2021/07/25 04:33:11;;;;;;;15.53;9.87;;;;;;;;;;4992663;28;20261;-77
2021/07/25 04:35:39;;;;;;;14.20;9.97;;;;;;;;;;4993031;28;20559;-77
2021/07/25 04:38:07;;;;;;;16.47;10.30;;;;;;;;;;4992858;28;20304;-77
2021/07/25 04:40:36;;;;;;;17.63;10.47;;;16.10;99.90;;;;;;4992885;28;20293;-77
2021/07/25 04:43:05;;;;;;;13.17;9.80;;;16.10;99.90;;;;;;4993018;28;20252;-77
2021/07/25 04:45:41;;;;;;;16.67;10.43;;;16.20;99.90;;;;;;4992778;28;20289;-77
2021/07/25 04:48:19;;;;;;;15.33;10.13;;;16.10;99.90;;;;;;4992855;28;20284;-77
2021/07/25 04:50:50;;;;;;;12.30;9.60;;;16.10;99.90;;;;;;4992607;28;20646;-77
2021/07/25 04:53:25;;;;;;;14.47;9.93;;;16.10;99.90;;;;;;4991305;28;20333;-77
2021/07/25 04:55:59;;;;;;;15.47;9.73;;;16.10;99.90;;;;;;4991012;28;20692;-77
2021/07/25 04:58:33;;;;;;;12.87;10.13;;;16.10;99.90;;;;;;4992551;28;20212;-77
2021/07/25 05:01:03;;;;;;;17.07;9.83;;;16.20;99.90;;;;;;4992527;28;20208;-77
2021/07/25 05:03:33;;;;;;;15.83;10.00;;;16.20;99.90;;;;;;4991687;28;20284;-77
2021/07/25 05:06:00;;;;;;;13.43;10.53;;;16.20;99.90;;;;;;4991956;28;20292;-76
2021/07/25 05:08:28;;;;;;;16.13;10.50;;;16.20;99.90;;;;;;4992044;28;20304;-77
2021/07/25 05:11:03;;;;;;;16.57;10.77;;;16.20;99.90;;;;;;4992000;28;20745;-78
2021/07/25 05:13:34;;;;;;;14.53;10.27;;;16.20;99.90;;;;;;4992173;28;20224;-77
2021/07/25 05:16:05;;;;;;;17.10;11.00;;;16.20;99.90;;;;;;4992424;28;20249;-77
2021/07/25 05:18:37;;;;;;;15.00;11.50;;;16.30;99.90;;;;;;4992367;28;20206;-77
2021/07/25 05:21:16;;;;;;;21.90;12.00;;;16.30;99.90;;;;;;4992927;28;20208;-77
2021/07/25 05:23:45;;;;;;;14.97;10.93;;;16.30;99.90;;;;;;4995862;28;20293;-77
2021/07/25 05:26:14;;;;;;;19.03;11.50;;;16.20;99.90;;;;;;4996008;28;20209;-77
2021/07/25 05:28:42;;;;;;;18.90;10.90;;;16.30;99.90;;;;;;4999268;28;20594;-77
2021/07/25 05:31:10;;;;;;;15.33;11.13;;;16.30;99.90;;;;;;5014325;28;20681;-77
2021/07/25 05:33:37;;;;;;;19.50;11.63;;;16.30;99.90;;;;;;5015491;28;20271;-76
2021/07/25 05:36:05;;;;;;;17.00;11.87;;;16.30;99.90;;;;;;5015507;28;20197;-77
2021/07/25 05:38:32;;;;;;;19.43;11.27;;;;;;;;;;5015326;28;20304;-76
2021/07/25 05:41:00;;;;;;;18.47;11.83;;;;;;;;;;5015344;28;20292;-77
2021/07/25 05:43:29;;;;;;;19.73;11.67;;;;;;;;;;5015250;28;20620;-77
2021/07/25 05:45:57;;;;;;;17.40;12.10;;;;;;;;;;5015274;28;20291;-77
2021/07/25 05:48:24;;;;;;;16.67;12.20;;;;;;;;;;5015356;28;20647;-77
2021/07/25 05:50:52;;;;;;;18.77;12.97;;;;;;;;;;5015606;28;20295;-77
2021/07/25 05:53:20;;;;;;;18.83;13.33;;;;;;;;;;5014757;28;20320;-77
2021/07/25 05:55:48;;;;;;;19.57;12.97;;;;;;;;;;5014945;28;20292;-77
2021/07/25 05:58:15;;;;;;;22.20;13.23;;;;;;;;;;5015123;28;20293;-76
2021/07/25 06:00:44;;;;;;;21.87;12.17;;;;;;;;;;5014959;28;20711;-77
2021/07/25 06:03:14;;;;;;;20.23;13.90;;;;;;;;;;5015243;28;20288;-77
2021/07/25 06:05:42;;;;;;;21.87;13.47;;;;;;;;;;5015092;28;20627;-77
2021/07/25 06:08:11;;;;;;;21.87;14.03;;;;;;;;;;5014707;28;20300;-77
2021/07/25 06:10:42;;;;;;;22.40;14.13;;;;;;;;;;5015081;28;20332;-77
2021/07/25 06:13:11;;;;;;;21.43;13.33;;;;;;;;;;5015130;28;20225;-76
2021/07/25 06:15:39;;;;;;;21.37;13.20;;;;;;;;;;5015018;28;20217;-77
2021/07/25 06:18:09;;;;;;;23.93;13.70;;;;;;;;;;5014954;28;20300;-77
2021/07/25 06:20:37;;;;;;;20.30;14.77;;;;;;;;;;5014691;28;20233;-77
2021/07/25 06:23:06;;;;;;;19.97;14.00;;;;;;;;;;5014480;28;20284;-77
2021/07/25 06:25:35;;;;;;;23.10;14.77;;;;;;;;;;5014422;28;20618;-77
2021/07/25 06:28:05;;;;;;;22.47;14.70;;;;;;;;;;5014566;28;20296;-77
2021/07/25 06:30:33;;;;;;;24.20;13.90;;;;;;;;;;5014628;28;20300;-77
2021/07/25 06:33:04;;;;;;;22.93;14.20;;;;;;;;;;5014222;28;20296;-77
2021/07/25 06:35:36;;;;;;;21.10;14.20;;;;;;;;;;5014490;28;20654;-77
2021/07/25 06:38:07;;;;;;;23.83;13.60;;;;;;;;;;5014466;28;20228;-77
2021/07/25 06:40:37;;;;;;;19.27;12.53;;;;;;;;;;5014236;28;20232;-77
2021/07/25 06:43:08;;;;;;;22.57;13.40;;;;;;;;;;5014469;28;20205;-77
2021/07/25 06:45:39;;;;;;;20.97;13.23;;;;;;;;;;5014287;28;20205;-77
2021/07/25 06:48:22;;;;;;;21.50;13.10;;;;;;;;;;5014362;28;20563;-77
2021/07/25 06:50:57;;;;;;;20.83;12.53;;;;;;;;;;5013735;28;20284;-77
2021/07/25 06:53:30;;;;;;;17.90;12.60;;;;;;;;;;5014064;28;20201;-77
2021/07/25 06:56:06;;;;;;;22.07;12.77;;;;;;;;;;5014045;28;20702;-77
2021/07/25 06:58:42;;;;;;;19.07;13.00;;;;;;;;;;5013919;28;20661;-77
2021/07/25 07:01:20;;;;;;;21.33;12.87;;;;;;;;;;5013998;28;20205;-77
2021/07/25 07:03:57;;;;;;;18.13;12.17;;;;;;;;;;5013719;28;20201;-77
2021/07/25 07:06:28;;;;;;;21.40;11.87;;;;;;;;;;5013426;28;20293;-77
2021/07/25 07:08:55;;;;;;;15.35;11.52;;;;;;;;;;5013760;28;20264;-77
2021/07/25 07:11:27;;;;;;;17.52;11.80;;;;;;;;;;5013774;28;20292;-76
2021/07/25 07:13:55;;;;;;;17.23;10.65;;;;;;;;;;5013531;28;20208;-77
2021/07/25 07:16:22;;;;;;;16.15;10.23;;;;;;;;;;5013814;28;20665;-77
2021/07/25 07:18:49;;;;;;;13.30;10.02;;;;;;;;;;5013251;28;20683;-77
2021/07/25 07:21:17;;;;;;;13.25;8.98;;;;;;;;;;5013631;28;20279;-77
2021/07/25 07:23:45;;;;;;;13.60;8.90;;;;;;;;;;5013701;28;20292;-78
2021/07/25 07:26:12;;;;;;;13.93;9.23;;;;;;;;;;5013370;28;20288;-77
2021/07/25 07:28:40;;;;;;;13.02;9.13;;;;;;;;;;5013584;28;20292;-77
2021/07/25 07:31:07;;;;;;;11.98;8.30;;;;;;;;;;5013757;28;20308;-77
2021/07/25 07:33:34;;;;;;;12.48;8.45;;;;;;;;;;5013236;28;20613;-78
2021/07/25 07:36:01;;;;;;;12.50;8.50;;;;;;;;;;5012976;28;20224;-77
2021/07/25 07:38:28;;;;;;;15.93;9.52;;;;;;;;;;5012980;28;20205;-77
2021/07/25 07:40:57;;;;;;;17.38;10.00;;;;;;;;;;5013238;28;20284;-77
2021/07/25 07:43:24;;;;;;;14.15;9.73;;;;;;;;;;5013154;28;20291;-77
2021/07/25 07:45:52;;;;;;;13.32;9.70;;;;;;;;;;5011943;28;20197;-77
2021/07/25 07:48:20;;;;;;;14.80;9.63;;;;;;;;;;5012823;28;20292;-77
2021/07/25 07:50:48;;;;;;;10.80;8.18;;;;;;;;;;5013300;28;20224;-77
2021/07/25 07:53:18;;;;;;;14.73;8.82;;;;;;;;;;5013002;28;20296;-77
2021/07/25 07:55:46;;;;;;;11.85;7.80;;;;;;;;;;5012474;28;20221;-77
2021/07/25 07:58:14;;;;;;;13.10;8.57;;;;;;;;;;5012762;28;20587;-77
2021/07/25 08:00:41;;;;;;;12.55;8.18;;;;;;;;;;5013058;28;20287;-77
2021/07/25 08:03:09;;;;;;;13.57;7.93;;;;;;;;;;5012761;28;20660;-77
2021/07/25 08:05:36;;;;;;;14.43;8.10;;;;;;;;;;5012818;28;20779;-77
2021/07/25 08:08:03;;;;;;;12.65;7.75;;;;;;;;;;5012612;28;20255;-76
2021/07/25 08:10:31;;;;;;;12.70;8.00;;;;;;;;;;5012413;28;20338;-77
2021/07/25 08:12:58;;;;;;;12.02;8.75;;;;;;;;;;5013302;28;20288;-77
2021/07/25 08:15:26;;;;;;;10.95;8.10;;;;;;;;;;5012930;28;20316;-77
2021/07/25 08:17:53;;;;;;;10.25;8.02;;;;;;;;;;5012564;28;20293;-77
2021/07/25 08:20:21;;;;;;;11.02;9.20;;;;;;;;;;5012910;28;20197;-77
2021/07/25 08:22:49;;;;;;;10.43;8.25;;;;;;;;;;5012696;28;20295;-77
2021/07/25 08:25:17;;;;;;;11.63;7.60;;;;;;;;;;5012614;28;20197;-78
2021/07/25 08:27:44;;;;;;;13.07;8.48;;;;;;;;;;5012744;28;20288;-77
2021/07/25 08:30:12;;;;;;;11.25;8.05;;;;;;;;;;5012330;28;20295;-77
2021/07/25 08:32:41;;;;;;;12.32;7.80;;;;;;;;;;5012476;28;20292;-77
2021/07/25 08:35:08;;;;;;;11.38;7.75;;;;;;;;;;5012335;28;20227;-78
2021/07/25 08:37:35;;;;;;;11.07;7.63;;;;;;;;;;5012823;28;20284;-77
2021/07/25 08:40:03;;;;;;;11.40;8.02;;;;;;;;;;5012161;28;20209;-77
2021/07/25 08:42:35;;;;;;;9.70;7.35;;;;;;;;;;5012031;28;20291;-77
2021/07/25 08:45:02;;;;;;;11.13;7.10;;;;;;;;;;5012272;28;20205;-77
2021/07/25 08:47:40;;;;;;;8.43;6.78;;;;;;;;;;5012330;28;20292;-78
2021/07/25 08:50:13;;;;;;;11.73;7.05;;;;;;;;;;5012433;28;20201;-77
2021/07/25 08:52:41;;;;;;;8.80;6.00;;;;;;;;;;5012742;28;20235;-77
2021/07/25 08:55:09;;;;;;;9.43;7.10;;;;;;;;;;5012772;28;20316;-77
2021/07/25 08:57:38;;;;;;;8.82;7.20;;;;;;;;;;5016366;28;20708;-77
2021/07/25 09:00:06;;;;;;;10.85;6.88;;;;;;;;;;5016270;28;20236;-77
2021/07/25 09:02:33;;;;;;;8.05;6.57;;;;;;;;;;5016072;28;20284;-77
2021/07/25 09:05:01;;;;;;;9.90;6.53;;;;;;;;;;5016278;28;20287;-77
2021/07/25 09:07:30;;;;;;;8.88;6.43;;;;;;;;;;5016196;28;20236;-77
2021/07/25 09:09:58;;;;;;;10.40;6.25;;;;;;;;;;5016146;28;20287;-78
2021/07/25 09:12:26;;;;;;;8.93;6.32;;;;;;;;;;5016344;28;20297;-77
2021/07/25 09:14:55;;;;;;;11.15;6.30;;;;;;;;;;5015622;28;20701;-77
2021/07/25 09:17:22;;;;;;;7.22;5.65;;;;;;;;;;5016195;28;20556;-77
2021/07/25 09:20:08;;;;;;;9.48;5.95;;;;;;;;;;5015841;28;20711;-77
2021/07/25 09:22:37;;;;;;;7.78;5.60;;;;;;;;;;5015815;28;20508;-77
2021/07/25 09:25:04;;;;;;;6.78;5.20;;;;;;;;;;5016283;28;20288;-78
2021/07/25 09:27:32;;;;;;;8.15;5.50;;;;;;;;;;5015681;28;20197;-77
2021/07/25 09:30:00;;;;;;;8.73;6.15;;;;;;;;;;5015192;28;20296;-78
2021/07/25 09:32:34;;;;;;;9.25;6.50;;;;;;;;;;5015802;28;20209;-77
2021/07/25 09:35:01;;;;;;;8.90;6.60;;;;;;;;;;5015549;28;20300;-77
2021/07/25 09:37:28;;;;;;;11.77;7.38;;;;;;;;;;5015539;28;20316;-77
2021/07/25 09:39:57;;;;;;;11.43;8.00;;;;;;;;;;5015541;28;20201;-77
2021/07/25 09:42:28;;;;;;;8.48;7.35;;;;;;;;;;5015077;28;20209;-77
2021/07/25 09:44:56;;;;;;;9.77;7.70;;;;;;;;;;5015088;28;20288;-77
2021/07/25 09:47:28;;;;;;;10.65;7.68;;;;;;;;;;5015426;28;20304;-77
2021/07/25 09:49:55;;;;;;;9.55;7.45;;;;;;;;;;5015270;28;20292;-77
2021/07/25 09:52:29;;;;;;;10.15;7.07;;;;;;;;;;5015158;28;20201;-77
2021/07/25 09:54:59;;;;;;;8.68;7.00;;;;;;;;;;5015262;28;20240;-77
2021/07/25 09:57:26;;;;;;;10.05;7.00;;;;;;;;;;5015119;28;20205;-77
2021/07/25 09:59:54;;;;;;;8.95;6.57;;;;;;;;;;5015604;28;20217;-78
2021/07/25 10:02:35;;;;;;;7.35;6.25;;;;;;;;;;5014965;28;20224;-78
2021/07/25 10:05:13;;;;;;;8.15;6.65;;;;;;;;;;5015051;28;20300;-78
2021/07/25 10:07:41;;;;;;;6.88;6.18;;;;;;;;;;5014296;28;20283;-78
2021/07/25 10:10:11;;;;;;;8.35;6.38;;;;;;;;;;5014655;28;20241;-78
2021/07/25 10:12:39;;;;;;;10.02;6.35;;;;;;;;;;5015148;28;20201;-78
2021/07/25 10:15:07;;;;;;;7.93;6.40;;;;;;;;;;5014715;28;20296;-78
2021/07/25 10:17:35;;;;;;;7.95;6.53;;;;;;;;;;5015113;28;20288;-77
2021/07/25 10:20:03;;;;;;;8.05;6.30;;;;;;;;;;5014558;28;20633;-77
2021/07/25 10:22:32;;;;;;;8.38;6.63;;;;;;;;;;5014427;28;20288;-77
2021/07/25 10:25:00;;;;;;;7.93;6.63;;;;;;;;;;5014639;28;20292;-77
2021/07/25 10:27:29;;;;;;;9.50;6.75;;;;;;;;;;5014482;28;20201;-77
2021/07/25 10:29:58;;;;;;;7.90;6.65;;;;;;;;;;5014324;28;20304;-77
2021/07/25 10:32:25;;;;;;;6.78;6.15;;;;;;;;;;5014396;28;20205;-77
2021/07/25 10:34:54;;;;;;;7.68;6.85;;;;;;;;;;5014317;28;20205;-78
2021/07/25 10:37:22;;;;;;;8.18;5.68;;;;;;;;;;5014340;28;20331;-78
2021/07/25 10:39:51;;;;;;;7.35;5.80;;;;;;;;;;5014369;28;20288;-78
2021/07/25 10:42:21;;;;;;;6.45;5.82;;;;;;;;;;5014288;28;20311;-78
2021/07/25 10:44:50;;;;;;;6.38;5.65;;;;;;;;;;5014406;28;20212;-78
2021/07/25 10:47:21;;;;;;;6.65;5.80;;;;;;;;;;5013992;28;20244;-78
2021/07/25 10:49:56;;;;;;;7.20;5.75;;;;;;;;;;5013844;28;20205;-78
2021/07/25 10:52:24;;;;;;;7.60;5.75;;;;;;;;;;5014278;28;20201;-78
2021/07/25 10:54:51;;;;;;;6.70;5.97;;;;;;;;;;5013942;28;20292;-77
2021/07/25 10:57:19;;;;;;;7.55;5.88;;;;;;;;;;5013630;28;20225;-78
2021/07/25 10:59:47;;;;;;;7.28;5.88;;;;;;;;;;5013650;28;20201;-77
2021/07/25 11:02:36;;;;;;;6.35;5.68;;;;;;;;;;5014169;28;20296;-77
2021/07/25 11:05:07;;;;;;;8.48;6.78;;;;;;;;;;5013466;28;20288;-78
2021/07/25 11:07:38;;;;;;;8.13;6.55;;;;;;;;;;5013968;28;20216;-78
2021/07/25 11:10:11;;;;;;;9.10;6.63;;;;;;;;;;5013852;28;20608;-78
2021/07/25 11:12:57;;;;;;;8.65;6.75;;;;;;;;;;5013895;28;20201;-78
2021/07/25 11:15:33;;;;;;;9.45;7.72;;;;;;;;;;5013867;28;20284;-78
2021/07/25 11:18:02;;;;;;;7.30;6.60;;;;;;;;;;5013859;28;20204;-78
2021/07/25 11:20:51;;;;;;;7.93;7.13;;;;;;;;;;5012758;28;20216;-78
2021/07/25 11:23:35;;;;;;;8.25;6.60;;;;;;;;;;5005560;28;20296;-79
2021/07/25 11:26:29;;;;;;;9.15;7.28;;;;;;;;;;5013438;28;20571;-78
2021/07/25 11:28:56;;;;;;;7.05;6.35;;;;;;;;;;4978413;28;20209;-78
2021/07/25 11:31:33;;;;;;;9.55;6.80;;;;;;;;;;5013755;28;20294;-79
2021/07/25 11:34:01;;;;;;;7.68;6.32;;;;;;;;;;5013365;28;20291;-78
2021/07/25 11:36:29;;;;;;;6.75;5.97;;;;;;;;;;5013161;28;20239;-78
2021/07/25 11:38:58;;;;;;;7.03;5.88;;;;;;;;;;5013426;28;20616;-79
2021/07/25 11:41:26;;;;;;;7.60;5.82;;;;;;;;;;5012888;28;20208;-79
2021/07/25 11:43:55;;;;;;;6.57;4.93;;;;;;;;;;5013022;28;20197;-78
2021/07/25 11:46:26;;;;;;;5.40;4.70;;;;;;;;;;5013134;28;20716;-78
2021/07/25 11:49:21;;;;;;;6.25;4.72;;;;;;;;;;5013205;28;20300;-79
2021/07/25 11:51:51;;;;;;;5.70;4.72;;;;;;;;;;4952345;29;20742;-78
2021/07/25 11:54:22;;;;;;;6.75;4.88;;;;;;;;;;4952035;29;20290;-79
2021/07/25 11:56:56;;;;;;;5.70;4.82;;;;;;;;;;4952177;29;20317;-79
2021/07/25 11:59:23;;;;;;;5.55;4.95;;;;;;;;;;4952286;29;20285;-78
2021/07/25 12:01:50;;;;;;;5.30;4.60;;;;;;;;;;4952067;29;20202;-78
2021/07/25 12:04:18;;;;;;;6.45;4.70;;;;;;;;;;4952140;29;20639;-79
2021/07/25 12:06:46;;;;;;;5.25;4.70;;;;;;;;;;4952286;29;20294;-78
2021/07/25 12:09:14;;;;;;;5.85;4.50;;;;;;;;;;4951749;28;20563;-79
2021/07/25 12:11:42;;;;;;;5.63;5.00;;;;;;;;;;4952101;29;20199;-78
2021/07/25 12:14:09;;;;;;;6.07;4.32;;;;;;;;;;4951994;29;20203;-79
2021/07/25 12:16:46;;;;;;;5.68;4.40;;;;;;;;;;4951983;29;20227;-78
2021/07/25 12:19:13;;;;;;;4.65;3.65;;;;;;;;;;4952154;29;20213;-78
2021/07/25 12:21:41;;;;;;;6.75;3.40;;;;;;;;;;4952114;29;20294;-78
2021/07/25 12:24:23;;;;;;;3.67;3.38;;;;;;;;;;4951313;29;20237;-79
2021/07/25 12:26:51;;;;;;;3.60;3.10;;;;;;;;;;4963390;28;20283;-79
2021/07/25 12:29:37;;;;;;;5.47;3.40;;;;;;;;;;5012392;28;20640;-79
2021/07/25 12:32:35;;;;;;;3.97;3.00;;;;;;;;;;5012461;28;20288;-79
2021/07/25 12:35:20;;;;;;;3.70;3.30;;;;;;;;;;4951729;29;20668;-78
2021/07/25 12:37:47;;;;;;;4.13;3.35;;;;;;;;;;4951474;29;20222;-79
2021/07/25 12:40:16;;;;;;;4.85;3.33;;;;;;;;;;4951915;29;20267;-79
2021/07/25 12:42:45;;;;;;;3.78;3.38;;;;;;;;;;4951605;29;20279;-79
2021/07/25 12:45:46;;;;;;;4.03;3.63;;;;;;;;;;4951632;29;20687;-78
2021/07/25 12:48:17;;;;;;;4.38;3.95;;;;;;;;;;4913556;29;20285;-79
2021/07/25 12:50:57;;;;;;;4.47;3.80;;;;;;;;;;4913596;29;20624;-79
2021/07/25 12:53:31;;;;;;;4.15;3.50;;;;;;;;;;4913121;29;20659;-78
2021/07/25 12:55:58;;;;;;;3.85;3.42;;;;;;;;;;4913413;29;20205;-78
2021/07/25 12:58:28;;;;;;;4.30;3.20;;;;;;;;;;4913488;29;20247;-78
2021/07/25 13:01:18;;;;;;;3.85;2.95;;;;;;;;;;4913347;29;20209;-79
2021/07/25 13:03:44;;;;;;;3.67;3.20;;;;;;;;;;4913568;29;20251;-79
2021/07/25 13:06:11;;;;;;;3.28;2.92;;;;;;;;;;4913508;29;20414;-78
2021/07/25 13:08:39;;;;;;;3.75;3.13;;;;;;;;;;4923629;29;20223;-78
2021/07/25 13:11:06;;;;;;;3.10;2.80;;;;;;;;;;4951142;29;20333;-78
2021/07/25 13:13:35;;;;;;;3.28;2.83;;;;;;;;;;4951273;29;20213;-78
2021/07/25 13:16:02;;;;;;;3.78;3.35;;;;;;;;;;4951276;29;20314;-78
2021/07/25 13:18:29;;;;;;;3.20;2.80;;;;;;;;;;4965463;28;20288;-78
2021/07/25 13:20:56;;;;;;;3.67;3.10;;;;;;;;;;5012159;28;20304;-78
2021/07/25 13:23:24;;;;;;;3.25;2.83;;;;;;;;;;5011948;28;20650;-78
2021/07/25 13:25:51;;;;;;;3.75;2.95;;;;;;;;;;5012284;28;20205;-78
2021/07/25 13:28:18;;;;;;;4.78;3.45;;;;;;;;;;5011894;28;20288;-78
2021/07/25 13:30:46;;;;;;;4.38;3.10;;;;;;;;;;4992514;28;20288;-78
2021/07/25 13:33:14;;;;;;;4.60;3.33;;;;;;;;;;4992692;28;20204;-78
2021/07/25 13:35:41;;;;;;;3.83;3.33;;;;;;;;;;4992390;28;20202;-78
2021/07/25 13:38:08;;;;;;;5.00;3.92;;;;;;;;;;4992039;28;20230;-77
2021/07/25 13:40:35;;;;;;;5.70;4.68;;;;;;;;;;4992412;28;20642;-78
2021/07/25 13:43:09;;;;;;;6.13;5.53;;;;;;;;;;4994413;28;20214;-77
2021/07/25 13:45:36;;;;;;;7.72;6.15;;;;;;;;;;4995806;28;20296;-78
2021/07/25 13:48:05;;;;;;;6.72;5.75;;;;;;;;;;4995606;28;20768;-77
2021/07/25 13:50:32;;;;;;;7.55;5.82;;;;;;;;;;4995366;28;20665;-78
2021/07/25 13:53:00;;;;;;;5.95;5.25;;;;;;;;;;4995822;28;20292;-78
2021/07/25 13:55:28;;;;;;;5.93;5.20;;;;;;;;;;4995680;28;20202;-78
2021/07/25 13:57:55;;;;;;;6.32;5.70;;;;;;;;;;4995604;28;20221;-78
2021/07/25 14:00:22;;;;;;;6.82;5.30;;;;;;;;;;4995802;28;20293;-77
2021/07/25 14:02:49;;;;;;;5.70;4.70;;;;;;;;;;4995708;28;20313;-78
2021/07/25 14:05:18;;;;;;;5.13;4.63;;;;;;;;;;4995105;28;20285;-78
2021/07/25 14:07:45;;;;;;;6.85;5.65;;;;;;;;;;4995371;28;20566;-77
2021/07/25 14:10:12;;;;;;;5.65;5.05;;;;;;;;;;4993929;28;20324;-77
2021/07/25 14:12:40;;;;;;;5.68;4.78;;;;;;;;;;4994260;28;20610;-78
2021/07/25 14:15:07;;;;;;;5.28;4.55;;;;;;;;;;4995153;28;20792;-77
2021/07/25 14:17:36;;;;;;;6.10;5.45;;;;;;;;;;4995217;28;20820;-77
2021/07/25 14:20:03;;;;;;;6.50;5.20;;;;;;;;;;4994855;28;20256;-77
2021/07/25 14:22:32;;;;;;;6.07;4.82;;;;;;;;;;4995124;28;20210;-77
2021/07/25 14:24:59;;;;;;;4.88;4.38;;;;;;;;;;4994891;28;20295;-77
2021/07/25 14:27:26;;;;;;;4.50;4.10;;;;;;;;;;4994895;28;20285;-78
2021/07/25 14:29:53;;;;;;;5.07;4.13;;;;;;;;;;5007409;28;20720;-77
2021/07/25 14:32:20;;;;;;;4.90;4.35;;;;;;;;;;5014664;28;20205;-77